createdAt,value
2022-10-22T00:01:37.957Z,3.03
2022-10-22T00:04:05.596Z,3.22
2022-10-22T00:06:32.150Z,5.25
2022-10-22T00:11:25.453Z,2.95
2022-10-22T00:16:18.323Z,2.22
2022-10-22T00:21:11.947Z,2.15
2022-10-22T00:23:42.998Z,3.03
2022-10-22T00:26:10.749Z,2.58
2022-10-22T00:28:37.813Z,1.38
2022-10-22T00:31:04.553Z,4.78
2022-10-22T00:33:31.349Z,6.18
2022-10-22T00:35:58.753Z,4.07
2022-10-22T00:38:25.235Z,2.72
2022-10-22T00:40:51.772Z,3.17
2022-10-22T00:45:45.914Z,5.32
2022-10-22T00:48:33.245Z,5.18
2022-10-22T00:51:03.940Z,2.42
2022-10-22T00:53:36.711Z,5.38
2022-10-22T00:56:03.677Z,2.85
2022-10-22T00:58:34.902Z,2.33
2022-10-22T01:01:02.237Z,2.83
2022-10-22T01:03:29.301Z,2.47
2022-10-22T01:05:59.320Z,2.13
2022-10-22T01:08:50.916Z,2.00
2022-10-22T01:11:29.274Z,4.75
2022-10-22T01:14:17.364Z,2.50
2022-10-22T01:17:18.475Z,2.78
2022-10-22T01:20:06.693Z,10.73
2022-10-22T01:22:54.815Z,3.58
2022-10-22T01:25:24.111Z,4.97
2022-10-22T01:28:41.435Z,4.00
2022-10-22T01:31:12.008Z,4.20
2022-10-22T01:33:40.318Z,2.17
2022-10-22T01:36:07.759Z,3.47
2022-10-22T01:38:34.463Z,2.75
2022-10-22T01:41:01.189Z,2.47
2022-10-22T01:43:27.593Z,2.72
2022-10-22T01:46:01.664Z,4.75
2022-10-22T01:48:45.692Z,4.25
2022-10-22T01:51:34.180Z,2.83
2022-10-22T01:54:07.514Z,1.85
2022-10-22T01:57:08.258Z,4.07
2022-10-22T01:59:59.309Z,2.67
2022-10-22T02:02:33.587Z,2.05
2022-10-22T02:05:48.717Z,1.45
2022-10-22T02:08:20.244Z,3.38
2022-10-22T02:10:48.362Z,1.83
2022-10-22T02:13:36.756Z,6.95
2022-10-22T02:16:06.237Z,1.23
2022-10-22T02:18:37.564Z,1.17
2022-10-22T02:23:35.425Z,1.38
2022-10-22T02:26:13.660Z,0.80
2022-10-22T02:28:49.344Z,1.63
2022-10-22T02:31:29.664Z,1.73
2022-10-22T02:34:00.372Z,2.35
2022-10-22T02:36:27.301Z,3.10
2022-10-22T02:38:54.882Z,2.92
2022-10-22T02:41:21.459Z,3.30
2022-10-22T02:46:19.912Z,1.38
2022-10-22T02:48:46.487Z,2.00
2022-10-22T02:53:39.575Z,3.28
2022-10-22T02:56:06.219Z,3.00
2022-10-22T02:58:32.651Z,2.30
2022-10-22T03:00:59.117Z,6.03
2022-10-22T03:03:25.525Z,2.58
2022-10-22T03:05:51.945Z,5.35
2022-10-22T03:08:18.669Z,4.25
2022-10-22T03:10:45.089Z,2.25
2022-10-22T03:13:11.469Z,2.05
2022-10-22T03:15:37.974Z,3.53
2022-10-22T03:18:04.371Z,1.25
2022-10-22T03:20:31.002Z,2.33
2022-10-22T03:25:26.874Z,2.17
2022-10-22T03:28:00.836Z,6.22
2022-10-22T03:30:27.339Z,1.98
2022-10-22T03:32:53.729Z,3.15
2022-10-22T03:35:20.394Z,3.63
2022-10-22T03:37:47.105Z,5.50
2022-10-22T03:40:14.062Z,2.90
2022-10-22T03:42:42.166Z,1.92
2022-10-22T03:45:09.218Z,3.45
2022-10-22T03:47:37.257Z,2.42
2022-10-22T03:50:05.781Z,9.32
2022-10-22T03:52:39.635Z,9.95
2022-10-22T03:55:07.379Z,3.28
2022-10-22T03:57:34.001Z,4.03
2022-10-22T04:02:27.092Z,5.60
2022-10-22T04:04:53.553Z,4.93
2022-10-22T04:07:20.143Z,4.03
2022-10-22T04:12:13.084Z,2.55
2022-10-22T04:14:39.465Z,8.32
2022-10-22T04:17:05.892Z,2.40
2022-10-22T04:21:59.828Z,2.45
2022-10-22T04:24:26.819Z,2.22
2022-10-22T04:26:56.318Z,3.92
2022-10-22T04:29:23.981Z,3.15
2022-10-22T04:31:50.562Z,2.72
2022-10-22T04:36:43.272Z,8.93
2022-10-22T04:39:09.716Z,4.70
2022-10-22T04:41:38.468Z,0.90
2022-10-22T04:44:06.236Z,7.18
2022-10-22T04:46:35.412Z,11.40
2022-10-22T04:49:03.865Z,4.97
2022-10-22T04:51:30.774Z,4.85
2022-10-22T04:53:57.182Z,5.72
2022-10-22T04:56:29.205Z,3.70
2022-10-22T04:59:07.829Z,2.35
2022-10-22T05:01:42.909Z,7.38
2022-10-22T05:04:15.386Z,3.33
2022-10-22T05:06:42.137Z,6.38
2022-10-22T05:09:13.079Z,3.63
2022-10-22T05:11:46.172Z,2.45
2022-10-22T05:14:12.923Z,3.40
2022-10-22T05:16:39.575Z,1.67
2022-10-22T05:19:07.404Z,1.27
2022-10-22T05:21:34.613Z,3.88
2022-10-22T05:24:01.115Z,5.75
2022-10-22T05:26:29.068Z,2.28
2022-10-22T05:28:56.514Z,5.00
2022-10-22T05:31:23.168Z,5.63
2022-10-22T05:33:49.755Z,2.83
2022-10-22T05:41:16.376Z,7.63
2022-10-22T05:43:43.439Z,5.53
2022-10-22T05:46:21.286Z,4.10
2022-10-22T05:48:51.125Z,11.48
2022-10-22T05:51:18.340Z,5.93
2022-10-22T05:53:44.917Z,6.05
2022-10-22T05:58:44.889Z,5.22
2022-10-22T06:01:18.837Z,7.55
2022-10-22T06:03:46.461Z,4.28
2022-10-22T06:06:18.394Z,7.38
2022-10-22T06:08:49.714Z,4.88
2022-10-22T06:11:17.886Z,5.75
2022-10-22T06:13:45.559Z,4.57
2022-10-22T06:16:12.268Z,6.90
2022-10-22T06:18:38.749Z,7.70
2022-10-22T06:21:07.223Z,8.38
2022-10-22T06:23:34.289Z,6.50
2022-10-22T06:26:01.502Z,10.10
2022-10-22T06:28:28.741Z,14.77
2022-10-22T06:30:57.495Z,25.05
2022-10-22T06:33:23.878Z,15.05
2022-10-22T06:35:50.380Z,17.02
2022-10-22T06:38:16.801Z,13.05
2022-10-22T06:40:46.100Z,7.18
2022-10-22T06:43:13.773Z,6.45
2022-10-22T06:45:40.785Z,7.50
2022-10-22T06:48:07.205Z,8.02
2022-10-22T06:50:34.682Z,11.07
2022-10-22T06:53:01.079Z,11.30
2022-10-22T06:55:27.529Z,15.43
2022-10-22T06:57:55.320Z,9.45
2022-10-22T07:00:22.244Z,8.88
2022-10-22T07:02:57.591Z,14.80
2022-10-22T07:05:25.696Z,21.13
2022-10-22T07:07:52.100Z,30.67
2022-10-22T07:10:18.777Z,31.33
2022-10-22T07:12:45.197Z,22.00
2022-10-22T07:15:11.873Z,24.45
2022-10-22T07:20:10.250Z,25.50
2022-10-22T07:22:36.613Z,34.47
2022-10-22T07:25:06.595Z,29.02
2022-10-22T07:27:34.115Z,19.40
2022-10-22T07:32:28.082Z,28.88
2022-10-22T07:34:54.607Z,24.00
2022-10-22T07:39:49.090Z,24.67
2022-10-22T07:42:15.918Z,25.98
2022-10-22T07:44:42.356Z,19.77
2022-10-22T07:47:08.772Z,15.13
2022-10-22T07:49:35.203Z,12.73
2022-10-22T07:54:28.184Z,16.40
2022-10-22T07:59:21.057Z,10.10
2022-10-22T08:01:47.515Z,6.30
2022-10-22T08:04:13.983Z,7.50
2022-10-22T08:06:44.448Z,6.90
2022-10-22T08:09:12.433Z,7.80
2022-10-22T08:14:05.589Z,7.35
2022-10-22T08:16:31.979Z,10.45
2022-10-22T08:21:25.136Z,7.82
2022-10-22T08:23:51.574Z,9.20
2022-10-22T08:26:18.223Z,6.90
2022-10-22T08:28:44.661Z,9.75
2022-10-22T08:31:11.378Z,9.55
2022-10-22T08:33:38.778Z,7.32
2022-10-22T08:36:05.788Z,8.15
2022-10-22T08:38:32.272Z,5.57
2022-10-22T08:44:00.749Z,5.85
2022-10-22T08:46:51.014Z,3.17
2022-10-22T08:49:22.642Z,3.03
2022-10-22T08:51:49.425Z,6.88
2022-10-22T08:54:26.818Z,4.10
2022-10-22T08:57:08.880Z,6.53
2022-10-22T08:59:50.432Z,2.70
2022-10-22T09:02:44.185Z,7.97
2022-10-22T09:05:27.744Z,7.00
2022-10-22T09:07:55.380Z,2.10
2022-10-22T09:10:29.932Z,4.00
2022-10-22T09:12:56.376Z,2.42
2022-10-22T09:15:22.776Z,6.60
2022-10-22T09:18:07.924Z,5.32
2022-10-22T09:21:05.262Z,5.80
2022-10-22T09:24:03.514Z,4.35
2022-10-22T09:26:34.549Z,2.42
2022-10-22T09:29:01.767Z,2.80
2022-10-22T09:31:31.185Z,4.35
2022-10-22T09:33:59.305Z,6.38
2022-10-22T09:36:28.905Z,3.03
2022-10-22T09:38:55.736Z,1.98
2022-10-22T09:41:26.049Z,3.58
2022-10-22T09:43:52.565Z,6.50
2022-10-22T09:46:22.563Z,2.22
2022-10-22T09:49:02.397Z,3.75
2022-10-22T09:51:57.765Z,4.28
2022-10-22T09:54:32.326Z,5.50
2022-10-22T09:57:05.869Z,11.05
2022-10-22T09:59:37.356Z,3.70
2022-10-22T10:02:37.617Z,2.88
2022-10-22T10:05:08.814Z,5.80
2022-10-22T10:07:36.739Z,2.15
2022-10-22T10:10:21.805Z,4.65
2022-10-22T10:12:48.219Z,3.92
2022-10-22T10:15:28.601Z,4.68
2022-10-22T10:17:58.490Z,2.72
2022-10-22T10:20:40.922Z,3.35
2022-10-22T10:23:39.713Z,7.60
2022-10-22T10:26:42.016Z,6.75
2022-10-22T10:29:43.590Z,3.55
2022-10-22T10:32:23.739Z,6.28
2022-10-22T10:35:01.399Z,3.70
2022-10-22T10:37:32.316Z,4.80
2022-10-22T10:40:14.647Z,2.20
2022-10-22T10:43:00.564Z,13.35
2022-10-22T10:45:41.441Z,5.88
2022-10-22T10:48:33.455Z,3.75
2022-10-22T10:51:07.711Z,3.33
2022-10-22T10:53:57.078Z,8.93
2022-10-22T10:56:41.201Z,4.78
2022-10-22T10:59:42.704Z,6.72
2022-10-22T11:02:48.751Z,5.95
2022-10-22T11:05:45.628Z,8.63
2022-10-22T11:08:36.407Z,9.93
2022-10-22T11:11:22.527Z,3.83
2022-10-22T11:14:05.833Z,10.25
2022-10-22T11:16:35.162Z,5.95
2022-10-22T11:19:22.639Z,4.32
2022-10-22T11:22:06.190Z,6.32
2022-10-22T11:24:50.578Z,2.83
2022-10-22T11:27:37.346Z,6.55
2022-10-22T11:30:11.416Z,5.82
2022-10-22T11:32:39.473Z,2.47
2022-10-22T11:35:12.704Z,2.70
2022-10-22T11:37:39.784Z,8.07
2022-10-22T11:40:14.768Z,5.72
2022-10-22T11:42:48.405Z,5.70
2022-10-22T11:45:14.777Z,2.58
2022-10-22T11:48:07.315Z,3.33
2022-10-22T11:50:48.992Z,3.72
2022-10-22T11:53:15.329Z,11.35
2022-10-22T11:55:55.297Z,4.40
2022-10-22T11:58:30.498Z,5.03
2022-10-22T12:01:17.507Z,8.38
2022-10-22T12:03:52.436Z,5.57
2022-10-22T12:06:22.996Z,8.48
2022-10-22T12:08:49.407Z,4.55
2022-10-22T12:11:47.686Z,3.72
2022-10-22T12:14:31.905Z,6.70
2022-10-22T12:17:05.777Z,9.52
2022-10-22T12:19:37.712Z,5.38
2022-10-22T12:22:07.697Z,4.47
2022-10-22T12:24:41.968Z,6.53
2022-10-22T12:27:24.281Z,5.85
2022-10-22T12:29:56.140Z,7.43
2022-10-22T12:32:23.721Z,4.88
2022-10-22T12:34:52.561Z,5.55
2022-10-22T12:37:19.787Z,7.80
2022-10-22T12:39:47.074Z,7.57
2022-10-22T12:42:16.258Z,4.78
2022-10-22T12:44:46.217Z,3.47
2022-10-22T12:47:18.291Z,4.82
2022-10-22T12:49:49.537Z,3.42
2022-10-22T12:52:21.343Z,3.03
2022-10-22T12:54:52.315Z,4.60
2022-10-22T12:57:21.096Z,3.88
2022-10-22T12:59:51.095Z,5.28
2022-10-22T13:02:22.386Z,4.50
2022-10-22T13:05:30.864Z,3.97
2022-10-22T13:08:09.329Z,2.13
2022-10-22T13:10:38.976Z,4.45
2022-10-22T13:13:08.033Z,6.15
2022-10-22T13:15:38.074Z,4.03
2022-10-22T13:18:19.522Z,2.85
2022-10-22T13:20:58.826Z,1.83
2022-10-22T13:23:27.905Z,3.22
2022-10-22T13:26:04.076Z,4.30
2022-10-22T13:28:32.153Z,4.50
2022-10-22T13:31:11.617Z,4.57
2022-10-22T13:33:40.317Z,7.90
2022-10-22T13:36:08.913Z,4.35
2022-10-22T13:38:35.508Z,4.72
2022-10-22T13:41:03.152Z,4.60
2022-10-22T13:43:29.539Z,5.38
2022-10-22T13:45:59.054Z,3.70
2022-10-22T13:48:28.165Z,8.55
2022-10-22T13:50:54.824Z,4.40
2022-10-22T13:53:25.248Z,9.00
2022-10-22T13:55:51.793Z,4.22
2022-10-22T13:58:21.280Z,6.88
2022-10-22T14:00:50.936Z,7.20
2022-10-22T14:03:20.485Z,3.00
2022-10-22T14:05:47.665Z,7.85
2022-10-22T14:08:16.296Z,6.68
2022-10-22T14:10:43.345Z,5.63
2022-10-22T14:13:14.155Z,5.40
2022-10-22T14:15:41.624Z,7.05
2022-10-22T14:18:12.432Z,5.38
2022-10-22T14:20:42.055Z,6.40
2022-10-22T14:23:20.614Z,6.22
2022-10-22T14:25:47.528Z,4.07
2022-10-22T14:28:14.222Z,6.20
2022-10-22T14:30:41.182Z,7.20
2022-10-22T14:33:19.873Z,7.85
2022-10-22T14:35:48.571Z,10.20
2022-10-22T14:38:16.087Z,7.90
2022-10-22T14:40:44.004Z,9.60
2022-10-22T14:43:12.573Z,4.25
2022-10-22T14:45:38.973Z,7.82
2022-10-22T14:48:06.250Z,10.32
2022-10-22T14:50:32.768Z,8.30
2022-10-22T14:53:00.039Z,12.95
2022-10-22T14:55:27.121Z,6.30
2022-10-22T14:57:54.145Z,11.30
2022-10-22T15:00:21.490Z,10.43
2022-10-22T15:02:48.468Z,6.35
2022-10-22T15:05:17.599Z,12.93
2022-10-22T15:07:44.840Z,6.40
2022-10-22T15:10:11.536Z,5.03
2022-10-22T15:12:37.943Z,10.48
2022-10-22T15:15:05.122Z,9.32
2022-10-22T15:17:31.658Z,8.70
2022-10-22T15:20:01.022Z,6.03
2022-10-22T15:22:28.476Z,4.07
2022-10-22T15:24:54.900Z,7.03
2022-10-22T15:27:21.368Z,6.28
2022-10-22T15:29:48.091Z,8.32
2022-10-22T15:32:14.652Z,6.22
2022-10-22T15:34:41.141Z,7.05
2022-10-22T15:37:13.065Z,9.63
2022-10-22T15:39:41.220Z,8.85
2022-10-22T15:42:09.870Z,5.25
2022-10-22T15:44:37.176Z,7.93
2022-10-22T15:47:04.418Z,7.05
2022-10-22T15:49:30.993Z,5.43
2022-10-22T15:51:58.658Z,12.25
2022-10-22T15:54:28.490Z,10.05
2022-10-22T15:56:56.185Z,7.90
2022-10-22T15:59:22.780Z,8.60
2022-10-22T16:01:49.491Z,11.10
2022-10-22T16:04:16.392Z,10.10
2022-10-22T16:06:45.566Z,8.38
2022-10-22T16:09:14.814Z,6.03
2022-10-22T16:11:42.783Z,11.23
2022-10-22T16:14:12.118Z,8.85
2022-10-22T16:16:43.213Z,13.30
2022-10-22T16:19:11.606Z,4.97
2022-10-22T16:21:38.910Z,14.85
2022-10-22T16:24:06.985Z,6.65
2022-10-22T16:26:33.916Z,8.32
2022-10-22T16:29:00.390Z,5.90
2022-10-22T16:31:27.103Z,7.68
2022-10-22T16:33:54.605Z,7.88
2022-10-22T16:36:21.099Z,8.35
2022-10-22T16:38:48.611Z,6.50
2022-10-22T16:41:17.022Z,10.95
2022-10-22T16:43:46.871Z,7.72
2022-10-22T16:46:13.412Z,10.57
2022-10-22T16:48:42.041Z,7.15
2022-10-22T16:51:10.484Z,10.65
2022-10-22T16:53:37.165Z,7.90
2022-10-22T16:56:04.274Z,11.32
2022-10-22T16:58:30.672Z,8.57
2022-10-22T17:00:57.121Z,13.15
2022-10-22T17:05:58.259Z,10.90
2022-10-22T17:08:25.049Z,11.27
2022-10-22T17:10:51.457Z,13.23
2022-10-22T17:13:17.915Z,7.25
2022-10-22T17:18:11.214Z,11.02
2022-10-22T17:20:42.122Z,10.75
2022-10-22T17:23:09.372Z,6.93
2022-10-22T17:25:40.814Z,12.00
2022-10-22T17:28:07.409Z,13.63
2022-10-22T17:33:06.353Z,14.35
2022-10-22T17:35:33.673Z,9.43
2022-10-22T17:38:00.241Z,8.30
2022-10-22T17:42:53.582Z,5.47
2022-10-22T17:45:20.252Z,8.63
2022-10-22T17:47:46.708Z,8.60
2022-10-22T17:50:13.081Z,11.52
2022-10-22T17:52:40.057Z,9.98
2022-10-22T17:55:07.343Z,9.75
2022-10-22T17:57:33.761Z,9.32
2022-10-22T18:00:00.194Z,8.32
2022-10-22T18:04:53.171Z,22.77
2022-10-22T18:09:47.693Z,12.27
2022-10-22T18:12:14.729Z,8.93
2022-10-22T18:14:41.121Z,12.32
2022-10-22T18:17:08.269Z,11.90
2022-10-22T18:19:35.035Z,8.70
2022-10-22T18:22:01.820Z,9.73
2022-10-22T18:24:28.464Z,10.35
2022-10-22T18:26:54.986Z,6.63
2022-10-22T18:31:48.871Z,7.45
2022-10-22T18:34:18.908Z,10.05
2022-10-22T18:36:48.240Z,15.07
2022-10-22T18:39:15.573Z,10.45
2022-10-22T18:41:43.271Z,8.15
2022-10-22T18:44:13.717Z,9.32
2022-10-22T18:46:40.444Z,10.35
2022-10-22T18:49:07.341Z,8.45
2022-10-22T18:51:34.957Z,11.73
2022-10-22T18:54:22.158Z,8.68
2022-10-22T18:56:49.929Z,16.85
2022-10-22T18:59:24.983Z,9.02
2022-10-22T19:01:52.971Z,6.75
2022-10-22T19:04:19.993Z,8.10
2022-10-22T19:06:46.654Z,6.82
2022-10-22T19:09:14.925Z,13.30
2022-10-22T19:11:43.419Z,10.13
2022-10-22T19:14:10.016Z,7.80
2022-10-22T19:16:37.589Z,15.70
2022-10-22T19:19:06.631Z,9.07
2022-10-22T19:21:33.679Z,10.45
2022-10-22T19:24:01.306Z,9.25
2022-10-22T19:26:29.709Z,10.73
2022-10-22T19:28:58.354Z,13.27
2022-10-22T19:31:26.461Z,9.52
2022-10-22T19:33:55.995Z,11.57
2022-10-22T19:36:32.843Z,9.95
2022-10-22T19:39:00.441Z,8.88
2022-10-22T19:41:28.826Z,12.35
2022-10-22T19:43:56.637Z,12.38
2022-10-22T19:46:25.566Z,7.90
2022-10-22T19:48:52.755Z,6.65
2022-10-22T19:51:22.055Z,6.93
2022-10-22T19:53:49.904Z,7.97
2022-10-22T19:56:19.596Z,8.23
2022-10-22T19:58:46.527Z,9.32
2022-10-22T20:01:15.311Z,12.43
2022-10-22T20:03:42.801Z,10.02
2022-10-22T20:06:11.420Z,12.15
2022-10-22T20:08:38.589Z,6.82
2022-10-22T20:11:07.581Z,9.68
2022-10-22T20:16:09.921Z,10.45
2022-10-22T20:18:37.864Z,10.07
2022-10-22T20:21:09.108Z,10.90
2022-10-22T20:23:35.790Z,9.38
2022-10-22T20:26:02.315Z,10.95
2022-10-22T20:30:55.108Z,12.88
2022-10-22T20:33:21.909Z,10.07
2022-10-22T20:36:02.307Z,13.35
2022-10-22T20:38:29.114Z,10.85
2022-10-22T20:41:06.973Z,9.85
2022-10-22T20:43:34.166Z,10.65
2022-10-22T20:46:04.129Z,8.52
2022-10-22T20:48:31.577Z,12.63
2022-10-22T20:50:59.455Z,12.00
2022-10-22T20:53:26.781Z,12.95
2022-10-22T20:55:57.529Z,11.48
2022-10-22T20:58:26.697Z,11.38
2022-10-22T21:00:55.190Z,13.68
2022-10-22T21:03:22.066Z,8.38
2022-10-22T21:05:49.061Z,10.75
2022-10-22T21:08:17.487Z,8.90
2022-10-22T21:10:46.327Z,8.00
2022-10-22T21:13:13.682Z,10.15
2022-10-22T21:15:40.326Z,8.10
2022-10-22T21:18:07.280Z,6.95
2022-10-22T21:20:34.120Z,7.10
2022-10-22T21:23:00.521Z,6.05
2022-10-22T21:25:26.972Z,10.25
2022-10-22T21:30:19.668Z,5.82
2022-10-22T21:32:46.106Z,6.18
2022-10-22T21:37:39.308Z,8.13
2022-10-22T21:40:06.969Z,12.68
2022-10-22T21:42:33.923Z,8.45
2022-10-22T21:45:01.585Z,9.02
2022-10-22T21:47:28.426Z,9.00
2022-10-22T21:49:54.920Z,6.00
2022-10-22T21:52:21.325Z,9.25
2022-10-22T21:54:47.861Z,7.40
2022-10-22T21:57:14.459Z,7.07
2022-10-22T21:59:40.930Z,7.55
2022-10-22T22:04:44.375Z,11.75
2022-10-22T22:07:10.991Z,5.72
2022-10-22T22:12:09.233Z,8.10
2022-10-22T22:14:35.675Z,4.88
2022-10-22T22:17:02.387Z,7.10
2022-10-22T22:19:28.798Z,7.75
2022-10-22T22:21:55.268Z,6.80
2022-10-22T22:24:21.704Z,10.18
2022-10-22T22:29:14.861Z,9.48
2022-10-22T22:34:15.193Z,6.38
2022-10-22T22:36:43.725Z,5.80
2022-10-22T22:39:22.448Z,3.90
2022-10-22T22:41:49.441Z,7.53
2022-10-22T22:44:17.015Z,6.45
2022-10-22T22:46:44.042Z,6.03
2022-10-22T22:49:12.443Z,5.97
2022-10-22T22:51:39.005Z,7.78
2022-10-22T22:54:05.639Z,6.60
2022-10-22T22:56:34.181Z,6.35
2022-10-22T22:59:01.608Z,7.05
2022-10-22T23:01:33.912Z,11.25
2022-10-22T23:04:04.946Z,4.43
2022-10-22T23:06:37.037Z,8.48
2022-10-22T23:09:05.503Z,6.35
2022-10-22T23:11:32.076Z,4.97
2022-10-22T23:16:29.877Z,6.53
2022-10-22T23:18:57.346Z,5.60
2022-10-22T23:21:29.493Z,7.97
2022-10-22T23:23:58.818Z,6.57
2022-10-22T23:26:31.006Z,4.93
2022-10-22T23:29:02.086Z,7.95
2022-10-22T23:31:28.587Z,5.03
2022-10-22T23:36:21.665Z,6.97
2022-10-22T23:38:49.672Z,5.38
2022-10-22T23:41:16.818Z,5.63
2022-10-22T23:43:43.459Z,5.78
2022-10-22T23:46:11.653Z,5.13
2022-10-22T23:48:39.183Z,10.23
2022-10-22T23:51:07.683Z,7.78
2022-10-22T23:53:34.139Z,7.72
2022-10-22T23:56:15.297Z,7.22
2022-10-22T23:58:42.650Z,5.80
